Terminal Aerodrome Forecast
Issued by NWS Des Moines, IA

Home | Current Version | Previous Version | Text Only | Print | Product List | Glossary On
Versions: 1 2 3 4 5 6 7 8 9 10 11 12 13 14 15 16 17 18 19 20 21 22 23 24 25 26 27 28 29 30
219
FTUS43 KDMX 241730
TAFALO
TAF
KALO 241730Z 2418/2518 20006KT P6SM BKN050
     FM250900 17006KT P6SM VCTS BKN040CB BKN200
     FM251000 15006KT P6SM -TSRA BKN050CB
     FM251100 15006KT 5SM -TSRA OVC040CB
     FM251600 16010KT P6SM VCTS OVC060CB=

USA.gov is the U.S. government's official web portal to all federal, state and local government web resources and services.